Segenap pimpinan dan karyawan_20240408_235739_0000

Jangan Benturan Sesama Caleg

Media Jatim

MediaJatim.com, Jember – Sesama Caleg Partai NasDem diimbau untuk tidak saling berebut kapling massa. Sebab, jika saling rebut pada kapling yang sama, maka tidak akan membesarkan partai, justru partai semakin kecil, bahkan bisa terjadi gesekan sesama Caleg satu partai. Demikian diungkapkan Ketua DPD Partai NasDem  Kabupaten Jember, H Marsuki Abd. Gofur saat memberikan sambutan dalam  “Rapat Konsolidasi & Pemantapan Caleg dan Pengurus DPC Partai NasDem Kabupaten Jember Dapil I di rumah Etti Nuraini, Desa Candijati, Kecamatan Arjasa, Jember, Jawa Timur, Jumat (16/11).

8_20240408_234212_0006
21_20240408_234212_0019
5_20240408_234212_0003
2_20240408_234211_0000
3_20240408_234211_0001
10_20240408_234212_0008
Diskon_20240411_102039_0000

Menurutnya, tidak elok jika Caleg Partai NasDem  melakukan sosialiasi di daerah yang sudah dikapling rekan sesama partai.

“Jangan sampai benturan dengan sesama Caleg NasDem. Masih banyak tempat lain yang belum disentuh.   Itu saja didatangi,” ungkapnya.

23_20240408_234212_0021
18_20240409_074953_0001
11_20240408_234212_0009
12_20240408_234212_0010
22_20240408_234212_0020
19_20240408_234212_0017
9_20240408_234212_0007
20_20240408_234212_0018
15_20240408_234212_0013
17_20240409_074953_0000
16_20240408_234212_0014
Diskon_20240409_180711_0000

Sementara itu, Caleg DPR RI, Lativa Marina Al-Ansori menegaskan pentingnya memenangkan Jokowi-Ma’ruf Amin. Sebab, partai yang pertama kali mengusung Calon Presiden dan Wakil Presiden nomor urut 01 itu adalah Partai NasDem.

“Kemenangan NasDem di daerah harus beriringan dengan kemenangan Jokowi-Ma’ruf Amin. Itu instruksi dari pusat (DPP Partai NasDem ),” jelasnya saat memperkenalkan diri di hadapan hadirin.

Baca Juga:  PPK-Muspika Kadur Rakor, Siap Sukseskan Pemilu 2019

Sementara itu, Ketua Bappilu DPD Partai NasDem Kabupaten Jember, Samanhudi menekankan perlunya Caleg untuk terus bersosialisasi. Dikatakannya,  Dapil I berpotensi untuk  meraih 2 kursi. Apalagi dalam  Pemilu tahun 2014 Dapil I menyumbang satu kursi di DPRD Jember.

“Saya optimis dapat dua kursi di Dapil ini. Yang penting  para Caleg dan kita semua harus terus berusaha meyakinkan masyarakat. Ini bukan sekedar merebut kursi atau jabatan tapi juga pertaruhan nama partai,” ucapnya.

Reporter: Aryudi A Razaq

Redaktur: Sulaiman

Kantor Kementerian Agama Kabupaten Sampang_20240410_124753_0000
4_20240408_232459_0003
6_20240408_232459_0005
1_20240408_232458_0000
Dinas lingkungan hidup kabupaten sumenep_20240408_232720_0000
7_20240408_232459_0006
3_20240408_232459_0002
8_20240408_232459_0007
2_20240408_232459_0001